sensor_id;sensor_type;location;lat;lon;timestamp;P1;durP1;ratioP1;P2;durP2;ratioP2
48951;SDS011;34758;42.148;24.744;2024-03-29T00:01:15;11.65;;;3.47;;
48951;SDS011;34758;42.148;24.744;2024-03-29T00:03:41;10.77;;;2.97;;
48951;SDS011;34758;42.148;24.744;2024-03-29T00:06:08;15.27;;;2.97;;
48951;SDS011;34758;42.148;24.744;2024-03-29T00:08:34;6.57;;;2.15;;
48951;SDS011;34758;42.148;24.744;2024-03-29T00:11:00;10.02;;;2.45;;
48951;SDS011;34758;42.148;24.744;2024-03-29T00:13:28;8.38;;;2.65;;
48951;SDS011;34758;42.148;24.744;2024-03-29T00:15:54;11.27;;;3.00;;
48951;SDS011;34758;42.148;24.744;2024-03-29T00:18:20;15.25;;;2.47;;
48951;SDS011;34758;42.148;24.744;2024-03-29T00:20:46;14.52;;;3.65;;
48951;SDS011;34758;42.148;24.744;2024-03-29T00:23:12;13.27;;;3.05;;
48951;SDS011;34758;42.148;24.744;2024-03-29T00:25:38;12.90;;;2.83;;
48951;SDS011;34758;42.148;24.744;2024-03-29T00:28:05;15.57;;;3.47;;
48951;SDS011;34758;42.148;24.744;2024-03-29T00:30:32;14.25;;;2.83;;
48951;SDS011;34758;42.148;24.744;2024-03-29T00:32:58;12.55;;;2.20;;
48951;SDS011;34758;42.148;24.744;2024-03-29T00:35:25;18.33;;;3.08;;
48951;SDS011;34758;42.148;24.744;2024-03-29T00:37:50;8.45;;;1.90;;
48951;SDS011;34758;42.148;24.744;2024-03-29T00:40:17;12.07;;;2.03;;
48951;SDS011;34758;42.148;24.744;2024-03-29T00:42:42;17.13;;;2.15;;
48951;SDS011;34758;42.148;24.744;2024-03-29T00:45:09;14.73;;;2.65;;
48951;SDS011;34758;42.148;24.744;2024-03-29T00:47:38;12.27;;;2.20;;
48951;SDS011;34758;42.148;24.744;2024-03-29T00:50:04;10.90;;;1.63;;
48951;SDS011;34758;42.148;24.744;2024-03-29T00:52:31;14.48;;;2.15;;
48951;SDS011;34758;42.148;24.744;2024-03-29T00:54:57;17.02;;;2.45;;
48951;SDS011;34758;42.148;24.744;2024-03-29T00:57:23;12.07;;;2.17;;
48951;SDS011;34758;42.148;24.744;2024-03-29T00:59:49;14.40;;;3.38;;
48951;SDS011;34758;42.148;24.744;2024-03-29T01:02:15;10.32;;;2.22;;
48951;SDS011;34758;42.148;24.744;2024-03-29T01:04:42;10.57;;;2.13;;
48951;SDS011;34758;42.148;24.744;2024-03-29T01:07:10;6.47;;;2.15;;
48951;SDS011;34758;42.148;24.744;2024-03-29T01:09:36;7.82;;;1.48;;
48951;SDS011;34758;42.148;24.744;2024-03-29T01:12:02;7.40;;;1.35;;
48951;SDS011;34758;42.148;24.744;2024-03-29T01:14:29;6.50;;;1.02;;
48951;SDS011;34758;42.148;24.744;2024-03-29T01:16:55;8.48;;;2.05;;
48951;SDS011;34758;42.148;24.744;2024-03-29T01:19:21;14.43;;;1.52;;
48951;SDS011;34758;42.148;24.744;2024-03-29T01:21:48;9.18;;;1.40;;
48951;SDS011;34758;42.148;24.744;2024-03-29T01:24:14;13.27;;;2.78;;
48951;SDS011;34758;42.148;24.744;2024-03-29T01:26:41;11.85;;;2.42;;
48951;SDS011;34758;42.148;24.744;2024-03-29T01:29:07;7.85;;;1.48;;
48951;SDS011;34758;42.148;24.744;2024-03-29T01:31:33;8.45;;;1.85;;
48951;SDS011;34758;42.148;24.744;2024-03-29T01:33:59;10.30;;;1.67;;
48951;SDS011;34758;42.148;24.744;2024-03-29T01:36:25;14.68;;;3.28;;
48951;SDS011;34758;42.148;24.744;2024-03-29T01:38:53;15.35;;;2.45;;
48951;SDS011;34758;42.148;24.744;2024-03-29T01:41:20;13.82;;;2.08;;
48951;SDS011;34758;42.148;24.744;2024-03-29T01:43:46;10.95;;;1.92;;
48951;SDS011;34758;42.148;24.744;2024-03-29T01:46:15;15.50;;;1.98;;
48951;SDS011;34758;42.148;24.744;2024-03-29T01:48:42;17.25;;;2.80;;
48951;SDS011;34758;42.148;24.744;2024-03-29T01:51:10;12.07;;;2.17;;
48951;SDS011;34758;42.148;24.744;2024-03-29T01:53:38;11.82;;;1.98;;
48951;SDS011;34758;42.148;24.744;2024-03-29T01:56:08;10.10;;;1.77;;
48951;SDS011;34758;42.148;24.744;2024-03-29T01:58:35;13.43;;;2.25;;
48951;SDS011;34758;42.148;24.744;2024-03-29T02:01:03;10.55;;;1.77;;
48951;SDS011;34758;42.148;24.744;2024-03-29T02:03:31;15.65;;;2.28;;
48951;SDS011;34758;42.148;24.744;2024-03-29T02:05:58;18.10;;;2.25;;
48951;SDS011;34758;42.148;24.744;2024-03-29T02:08:27;14.60;;;2.20;;
48951;SDS011;34758;42.148;24.744;2024-03-29T02:10:55;14.07;;;2.80;;
48951;SDS011;34758;42.148;24.744;2024-03-29T02:13:24;10.80;;;2.38;;
48951;SDS011;34758;42.148;24.744;2024-03-29T02:15:51;17.05;;;3.22;;
48951;SDS011;34758;42.148;24.744;2024-03-29T02:18:18;11.50;;;2.20;;
48951;SDS011;34758;42.148;24.744;2024-03-29T02:20:45;12.23;;;2.40;;
48951;SDS011;34758;42.148;24.744;2024-03-29T02:23:13;13.75;;;2.08;;
48951;SDS011;34758;42.148;24.744;2024-03-29T02:25:42;6.95;;;2.45;;
48951;SDS011;34758;42.148;24.744;2024-03-29T02:28:09;7.90;;;1.77;;
48951;SDS011;34758;42.148;24.744;2024-03-29T02:30:36;7.85;;;2.05;;
48951;SDS011;34758;42.148;24.744;2024-03-29T02:33:03;12.65;;;2.33;;
48951;SDS011;34758;42.148;24.744;2024-03-29T02:35:31;11.10;;;1.95;;
48951;SDS011;34758;42.148;24.744;2024-03-29T02:37:58;10.77;;;2.08;;
48951;SDS011;34758;42.148;24.744;2024-03-29T02:40:25;8.27;;;1.70;;
48951;SDS011;34758;42.148;24.744;2024-03-29T02:42:54;9.23;;;2.38;;
48951;SDS011;34758;42.148;24.744;2024-03-29T02:45:20;8.32;;;1.55;;
48951;SDS011;34758;42.148;24.744;2024-03-29T02:47:48;8.93;;;2.75;;
48951;SDS011;34758;42.148;24.744;2024-03-29T02:50:15;9.43;;;1.40;;
48951;SDS011;34758;42.148;24.744;2024-03-29T02:52:42;8.82;;;1.60;;
48951;SDS011;34758;42.148;24.744;2024-03-29T02:55:09;8.68;;;1.55;;
48951;SDS011;34758;42.148;24.744;2024-03-29T02:57:36;8.02;;;1.45;;
48951;SDS011;34758;42.148;24.744;2024-03-29T03:00:06;8.70;;;1.48;;
48951;SDS011;34758;42.148;24.744;2024-03-29T03:02:32;10.95;;;3.42;;
48951;SDS011;34758;42.148;24.744;2024-03-29T03:04:59;9.52;;;1.70;;
48951;SDS011;34758;42.148;24.744;2024-03-29T03:07:27;7.75;;;1.15;;
48951;SDS011;34758;42.148;24.744;2024-03-29T03:10:11;12.45;;;3.30;;
48951;SDS011;34758;42.148;24.744;2024-03-29T03:13:05;10.35;;;1.70;;
48951;SDS011;34758;42.148;24.744;2024-03-29T03:15:33;9.55;;;1.15;;
48951;SDS011;34758;42.148;24.744;2024-03-29T03:18:03;10.10;;;1.25;;
48951;SDS011;34758;42.148;24.744;2024-03-29T03:20:29;10.27;;;1.40;;
48951;SDS011;34758;42.148;24.744;2024-03-29T03:22:59;9.38;;;1.50;;
48951;SDS011;34758;42.148;24.744;2024-03-29T03:25:27;9.70;;;1.75;;
48951;SDS011;34758;42.148;24.744;2024-03-29T03:27:52;10.38;;;2.25;;
48951;SDS011;34758;42.148;24.744;2024-03-29T03:30:19;6.43;;;1.50;;
48951;SDS011;34758;42.148;24.744;2024-03-29T03:32:47;7.22;;;1.17;;
48951;SDS011;34758;42.148;24.744;2024-03-29T03:35:14;6.57;;;1.40;;
48951;SDS011;34758;42.148;24.744;2024-03-29T03:37:41;6.95;;;1.20;;
48951;SDS011;34758;42.148;24.744;2024-03-29T03:40:08;11.93;;;1.42;;
48951;SDS011;34758;42.148;24.744;2024-03-29T03:42:36;4.72;;;1.20;;
48951;SDS011;34758;42.148;24.744;2024-03-29T03:45:03;6.70;;;1.20;;
48951;SDS011;34758;42.148;24.744;2024-03-29T03:47:29;7.53;;;1.02;;
48951;SDS011;34758;42.148;24.744;2024-03-29T03:49:58;8.65;;;1.25;;
48951;SDS011;34758;42.148;24.744;2024-03-29T03:52:25;6.95;;;0.85;;
48951;SDS011;34758;42.148;24.744;2024-03-29T03:54:52;6.15;;;1.30;;
48951;SDS011;34758;42.148;24.744;2024-03-29T03:57:18;7.07;;;1.10;;
48951;SDS011;34758;42.148;24.744;2024-03-29T03:59:45;5.47;;;1.17;;
48951;SDS011;34758;42.148;24.744;2024-03-29T04:02:11;6.28;;;0.90;;
48951;SDS011;34758;42.148;24.744;2024-03-29T04:04:38;7.60;;;1.50;;
48951;SDS011;34758;42.148;24.744;2024-03-29T04:07:06;4.78;;;1.00;;
48951;SDS011;34758;42.148;24.744;2024-03-29T04:09:33;4.60;;;0.73;;
48951;SDS011;34758;42.148;24.744;2024-03-29T04:12:00;4.22;;;1.05;;
48951;SDS011;34758;42.148;24.744;2024-03-29T04:14:26;7.13;;;1.33;;
48951;SDS011;34758;42.148;24.744;2024-03-29T04:16:53;8.43;;;2.72;;
48951;SDS011;34758;42.148;24.744;2024-03-29T04:19:19;4.65;;;0.82;;
48951;SDS011;34758;42.148;24.744;2024-03-29T04:21:46;5.18;;;1.10;;
48951;SDS011;34758;42.148;24.744;2024-03-29T04:24:14;4.25;;;0.77;;
48951;SDS011;34758;42.148;24.744;2024-03-29T04:26:41;4.72;;;0.77;;
48951;SDS011;34758;42.148;24.744;2024-03-29T04:29:09;4.80;;;0.90;;
48951;SDS011;34758;42.148;24.744;2024-03-29T04:31:36;5.20;;;0.90;;
48951;SDS011;34758;42.148;24.744;2024-03-29T04:34:05;6.78;;;0.85;;
48951;SDS011;34758;42.148;24.744;2024-03-29T04:36:32;5.93;;;1.15;;
48951;SDS011;34758;42.148;24.744;2024-03-29T04:38:58;6.07;;;1.00;;
48951;SDS011;34758;42.148;24.744;2024-03-29T04:41:27;5.63;;;1.13;;
48951;SDS011;34758;42.148;24.744;2024-03-29T04:43:54;7.32;;;0.82;;
48951;SDS011;34758;42.148;24.744;2024-03-29T04:46:21;8.98;;;0.80;;
48951;SDS011;34758;42.148;24.744;2024-03-29T04:48:50;9.10;;;0.80;;
48951;SDS011;34758;42.148;24.744;2024-03-29T04:51:17;5.43;;;1.02;;
48951;SDS011;34758;42.148;24.744;2024-03-29T04:53:44;2.33;;;1.17;;
48951;SDS011;34758;42.148;24.744;2024-03-29T04:56:11;4.80;;;0.55;;
48951;SDS011;34758;42.148;24.744;2024-03-29T04:58:41;6.50;;;0.70;;
48951;SDS011;34758;42.148;24.744;2024-03-29T05:01:08;4.18;;;0.70;;
48951;SDS011;34758;42.148;24.744;2024-03-29T05:03:37;4.45;;;0.77;;
48951;SDS011;34758;42.148;24.744;2024-03-29T05:06:04;6.47;;;0.90;;
48951;SDS011;34758;42.148;24.744;2024-03-29T05:08:31;3.88;;;0.90;;
48951;SDS011;34758;42.148;24.744;2024-03-29T05:10:58;3.53;;;1.20;;
48951;SDS011;34758;42.148;24.744;2024-03-29T05:13:26;3.55;;;1.33;;
48951;SDS011;34758;42.148;24.744;2024-03-29T05:15:57;7.65;;;1.02;;
48951;SDS011;34758;42.148;24.744;2024-03-29T05:18:24;3.17;;;0.50;;
48951;SDS011;34758;42.148;24.744;2024-03-29T05:20:52;4.53;;;0.60;;
48951;SDS011;34758;42.148;24.744;2024-03-29T05:23:20;3.45;;;0.80;;
48951;SDS011;34758;42.148;24.744;2024-03-29T05:25:47;4.47;;;0.60;;
48951;SDS011;34758;42.148;24.744;2024-03-29T05:28:14;7.10;;;1.08;;
48951;SDS011;34758;42.148;24.744;2024-03-29T05:30:41;9.45;;;1.10;;
48951;SDS011;34758;42.148;24.744;2024-03-29T05:33:12;5.07;;;0.63;;
48951;SDS011;34758;42.148;24.744;2024-03-29T05:35:38;4.35;;;0.80;;
48951;SDS011;34758;42.148;24.744;2024-03-29T05:38:06;6.15;;;1.33;;
48951;SDS011;34758;42.148;24.744;2024-03-29T05:40:34;6.57;;;1.15;;
48951;SDS011;34758;42.148;24.744;2024-03-29T05:43:03;7.22;;;0.80;;
48951;SDS011;34758;42.148;24.744;2024-03-29T05:45:32;6.50;;;0.80;;
48951;SDS011;34758;42.148;24.744;2024-03-29T05:48:00;3.75;;;0.60;;
48951;SDS011;34758;42.148;24.744;2024-03-29T05:50:29;3.88;;;1.13;;
48951;SDS011;34758;42.148;24.744;2024-03-29T05:52:58;4.45;;;0.65;;
48951;SDS011;34758;42.148;24.744;2024-03-29T05:55:27;7.75;;;0.63;;
48951;SDS011;34758;42.148;24.744;2024-03-29T05:57:56;6.15;;;1.02;;
48951;SDS011;34758;42.148;24.744;2024-03-29T06:00:26;4.70;;;0.65;;
48951;SDS011;34758;42.148;24.744;2024-03-29T06:02:54;9.02;;;1.20;;
48951;SDS011;34758;42.148;24.744;2024-03-29T06:05:22;6.18;;;1.20;;
48951;SDS011;34758;42.148;24.744;2024-03-29T06:07:52;5.72;;;0.90;;
48951;SDS011;34758;42.148;24.744;2024-03-29T06:10:19;6.68;;;1.00;;
48951;SDS011;34758;42.148;24.744;2024-03-29T06:12:47;4.70;;;1.00;;
48951;SDS011;34758;42.148;24.744;2024-03-29T06:15:14;9.52;;;1.50;;
48951;SDS011;34758;42.148;24.744;2024-03-29T06:18:00;4.35;;;1.08;;
48951;SDS011;34758;42.148;24.744;2024-03-29T06:20:29;4.70;;;1.13;;
48951;SDS011;34758;42.148;24.744;2024-03-29T06:22:58;6.72;;;1.48;;
48951;SDS011;34758;42.148;24.744;2024-03-29T06:25:25;4.22;;;1.00;;
48951;SDS011;34758;42.148;24.744;2024-03-29T06:27:52;5.25;;;0.85;;
48951;SDS011;34758;42.148;24.744;2024-03-29T06:30:19;10.40;;;7.68;;
48951;SDS011;34758;42.148;24.744;2024-03-29T06:32:48;14.55;;;6.18;;
48951;SDS011;34758;42.148;24.744;2024-03-29T06:35:15;5.38;;;0.60;;
48951;SDS011;34758;42.148;24.744;2024-03-29T06:37:41;6.13;;;0.93;;
48951;SDS011;34758;42.148;24.744;2024-03-29T06:40:11;5.40;;;1.00;;
48951;SDS011;34758;42.148;24.744;2024-03-29T06:42:38;7.38;;;0.95;;
48951;SDS011;34758;42.148;24.744;2024-03-29T06:45:05;3.42;;;0.68;;
48951;SDS011;34758;42.148;24.744;2024-03-29T06:47:34;5.78;;;0.52;;
48951;SDS011;34758;42.148;24.744;2024-03-29T06:50:04;3.65;;;0.60;;
48951;SDS011;34758;42.148;24.744;2024-03-29T06:52:33;10.07;;;1.35;;
48951;SDS011;34758;42.148;24.744;2024-03-29T06:55:02;5.50;;;0.80;;
48951;SDS011;34758;42.148;24.744;2024-03-29T06:57:39;4.35;;;0.60;;
48951;SDS011;34758;42.148;24.744;2024-03-29T07:00:10;2.38;;;0.70;;
48951;SDS011;34758;42.148;24.744;2024-03-29T07:02:38;3.45;;;0.80;;
48951;SDS011;34758;42.148;24.744;2024-03-29T07:05:05;5.25;;;0.80;;
48951;SDS011;34758;42.148;24.744;2024-03-29T07:07:32;1.77;;;0.63;;
48951;SDS011;34758;42.148;24.744;2024-03-29T07:09:59;3.47;;;0.80;;
48951;SDS011;34758;42.148;24.744;2024-03-29T07:12:28;1.35;;;0.50;;
48951;SDS011;34758;42.148;24.744;2024-03-29T07:14:56;2.85;;;0.50;;
48951;SDS011;34758;42.148;24.744;2024-03-29T07:17:24;3.38;;;0.93;;
48951;SDS011;34758;42.148;24.744;2024-03-29T07:19:51;3.92;;;0.40;;
48951;SDS011;34758;42.148;24.744;2024-03-29T07:22:19;4.45;;;0.60;;
48951;SDS011;34758;42.148;24.744;2024-03-29T07:24:46;4.22;;;0.50;;
48951;SDS011;34758;42.148;24.744;2024-03-29T07:27:13;6.25;;;0.52;;
48951;SDS011;34758;42.148;24.744;2024-03-29T07:29:43;2.45;;;0.38;;
48951;SDS011;34758;42.148;24.744;2024-03-29T07:32:12;5.25;;;0.82;;
48951;SDS011;34758;42.148;24.744;2024-03-29T07:34:39;3.28;;;0.50;;
48951;SDS011;34758;42.148;24.744;2024-03-29T07:37:07;4.10;;;0.30;;
48951;SDS011;34758;42.148;24.744;2024-03-29T07:39:42;2.03;;;0.50;;
48951;SDS011;34758;42.148;24.744;2024-03-29T07:42:08;7.65;;;0.68;;
48951;SDS011;34758;42.148;24.744;2024-03-29T07:44:37;3.22;;;0.55;;
48951;SDS011;34758;42.148;24.744;2024-03-29T07:47:07;4.22;;;0.30;;
48951;SDS011;34758;42.148;24.744;2024-03-29T07:49:36;2.83;;;0.52;;
48951;SDS011;34758;42.148;24.744;2024-03-29T07:52:03;3.55;;;0.28;;
48951;SDS011;34758;42.148;24.744;2024-03-29T07:54:30;3.53;;;0.50;;
48951;SDS011;34758;42.148;24.744;2024-03-29T07:56:57;4.43;;;0.60;;
48951;SDS011;34758;42.148;24.744;2024-03-29T07:59:26;11.85;;;1.33;;
48951;SDS011;34758;42.148;24.744;2024-03-29T08:01:54;5.43;;;0.40;;
48951;SDS011;34758;42.148;24.744;2024-03-29T08:04:23;1.85;;;0.45;;
48951;SDS011;34758;42.148;24.744;2024-03-29T08:06:52;3.85;;;0.95;;
48951;SDS011;34758;42.148;24.744;2024-03-29T08:09:21;3.10;;;0.40;;
48951;SDS011;34758;42.148;24.744;2024-03-29T08:11:49;5.30;;;0.50;;
48951;SDS011;34758;42.148;24.744;2024-03-29T08:14:16;1.48;;;0.30;;
48951;SDS011;34758;42.148;24.744;2024-03-29T08:16:43;6.32;;;1.13;;
48951;SDS011;34758;42.148;24.744;2024-03-29T08:19:10;3.85;;;0.50;;
48951;SDS011;34758;42.148;24.744;2024-03-29T08:21:37;4.32;;;0.70;;
48951;SDS011;34758;42.148;24.744;2024-03-29T08:24:08;2.63;;;0.55;;
48951;SDS011;34758;42.148;24.744;2024-03-29T08:26:35;2.50;;;0.40;;
48951;SDS011;34758;42.148;24.744;2024-03-29T08:29:03;2.53;;;0.50;;
48951;SDS011;34758;42.148;24.744;2024-03-29T08:31:31;1.95;;;0.40;;
48951;SDS011;34758;42.148;24.744;2024-03-29T08:33:59;4.35;;;0.35;;
48951;SDS011;34758;42.148;24.744;2024-03-29T08:36:27;1.50;;;0.40;;
48951;SDS011;34758;42.148;24.744;2024-03-29T08:38:53;5.20;;;0.40;;
48951;SDS011;34758;42.148;24.744;2024-03-29T08:41:23;3.75;;;0.55;;
48951;SDS011;34758;42.148;24.744;2024-03-29T08:43:50;1.48;;;0.40;;
48951;SDS011;34758;42.148;24.744;2024-03-29T08:46:17;3.08;;;0.32;;
48951;SDS011;34758;42.148;24.744;2024-03-29T08:48:44;3.05;;;0.35;;
48951;SDS011;34758;42.148;24.744;2024-03-29T08:51:11;5.10;;;0.50;;
48951;SDS011;34758;42.148;24.744;2024-03-29T08:53:40;3.88;;;0.55;;
48951;SDS011;34758;42.148;24.744;2024-03-29T08:56:08;2.85;;;0.40;;
48951;SDS011;34758;42.148;24.744;2024-03-29T08:58:38;1.67;;;0.30;;
48951;SDS011;34758;42.148;24.744;2024-03-29T09:01:05;3.30;;;0.50;;
48951;SDS011;34758;42.148;24.744;2024-03-29T09:03:33;1.67;;;0.50;;
48951;SDS011;34758;42.148;24.744;2024-03-29T09:06:00;4.28;;;0.30;;
48951;SDS011;34758;42.148;24.744;2024-03-29T09:08:28;1.02;;;0.30;;
48951;SDS011;34758;42.148;24.744;2024-03-29T09:10:55;2.53;;;0.40;;
48951;SDS011;34758;42.148;24.744;2024-03-29T09:13:23;3.28;;;0.50;;
48951;SDS011;34758;42.148;24.744;2024-03-29T09:15:53;1.50;;;0.28;;
48951;SDS011;34758;42.148;24.744;2024-03-29T09:18:23;2.95;;;0.40;;
48951;SDS011;34758;42.148;24.744;2024-03-29T09:20:57;4.00;;;0.50;;
48951;SDS011;34758;42.148;24.744;2024-03-29T09:23:24;2.30;;;0.30;;
48951;SDS011;34758;42.148;24.744;2024-03-29T09:25:53;3.70;;;0.60;;
48951;SDS011;34758;42.148;24.744;2024-03-29T09:28:21;4.18;;;0.60;;
48951;SDS011;34758;42.148;24.744;2024-03-29T09:30:58;1.73;;;0.25;;
48951;SDS011;34758;42.148;24.744;2024-03-29T09:33:27;3.67;;;0.70;;
48951;SDS011;34758;42.148;24.744;2024-03-29T09:35:55;2.70;;;0.80;;
48951;SDS011;34758;42.148;24.744;2024-03-29T09:38:25;3.42;;;1.17;;
48951;SDS011;34758;42.148;24.744;2024-03-29T09:40:59;2.63;;;1.10;;
48951;SDS011;34758;42.148;24.744;2024-03-29T09:43:31;4.88;;;1.80;;
48951;SDS011;34758;42.148;24.744;2024-03-29T09:46:00;3.00;;;0.80;;
48951;SDS011;34758;42.148;24.744;2024-03-29T09:48:28;5.45;;;0.80;;
48951;SDS011;34758;42.148;24.744;2024-03-29T09:51:02;2.28;;;0.40;;
48951;SDS011;34758;42.148;24.744;2024-03-29T09:53:35;2.53;;;0.60;;
48951;SDS011;34758;42.148;24.744;2024-03-29T09:56:03;5.50;;;1.23;;
48951;SDS011;34758;42.148;24.744;2024-03-29T09:58:33;3.83;;;0.38;;
48951;SDS011;34758;42.148;24.744;2024-03-29T10:01:06;5.65;;;0.45;;
48951;SDS011;34758;42.148;24.744;2024-03-29T10:03:36;3.00;;;0.38;;
48951;SDS011;34758;42.148;24.744;2024-03-29T10:06:06;4.10;;;0.35;;
48951;SDS011;34758;42.148;24.744;2024-03-29T10:08:37;3.03;;;0.50;;
48951;SDS011;34758;42.148;24.744;2024-03-29T10:11:05;3.13;;;0.70;;
48951;SDS011;34758;42.148;24.744;2024-03-29T10:13:33;5.22;;;0.85;;
48951;SDS011;34758;42.148;24.744;2024-03-29T10:16:01;2.17;;;0.30;;
48951;SDS011;34758;42.148;24.744;2024-03-29T10:18:30;1.58;;;0.30;;
48951;SDS011;34758;42.148;24.744;2024-03-29T10:20:58;2.78;;;0.20;;
48951;SDS011;34758;42.148;24.744;2024-03-29T10:23:26;2.55;;;0.65;;
48951;SDS011;34758;42.148;24.744;2024-03-29T10:25:53;2.88;;;0.30;;
48951;SDS011;34758;42.148;24.744;2024-03-29T10:28:20;1.38;;;0.20;;
48951;SDS011;34758;42.148;24.744;2024-03-29T10:30:48;4.63;;;0.35;;
48951;SDS011;34758;42.148;24.744;2024-03-29T10:33:18;1.33;;;0.40;;
48951;SDS011;34758;42.148;24.744;2024-03-29T10:35:48;2.45;;;0.40;;
48951;SDS011;34758;42.148;24.744;2024-03-29T10:38:15;3.42;;;0.50;;
48951;SDS011;34758;42.148;24.744;2024-03-29T10:40:42;4.18;;;0.22;;
48951;SDS011;34758;42.148;24.744;2024-03-29T10:43:11;3.03;;;0.40;;
48951;SDS011;34758;42.148;24.744;2024-03-29T10:45:39;3.15;;;0.40;;
48951;SDS011;34758;42.148;24.744;2024-03-29T10:48:07;1.95;;;0.30;;
48951;SDS011;34758;42.148;24.744;2024-03-29T10:50:39;3.67;;;0.55;;
48951;SDS011;34758;42.148;24.744;2024-03-29T10:53:10;2.78;;;0.22;;
48951;SDS011;34758;42.148;24.744;2024-03-29T10:55:38;1.58;;;0.30;;
48951;SDS011;34758;42.148;24.744;2024-03-29T10:58:07;1.20;;;0.28;;
48951;SDS011;34758;42.148;24.744;2024-03-29T11:00:38;1.63;;;0.65;;
48951;SDS011;34758;42.148;24.744;2024-03-29T11:03:09;3.75;;;0.50;;
48951;SDS011;34758;42.148;24.744;2024-03-29T11:05:43;4.07;;;0.70;;
48951;SDS011;34758;42.148;24.744;2024-03-29T11:08:13;1.90;;;0.40;;
48951;SDS011;34758;42.148;24.744;2024-03-29T11:10:41;2.05;;;0.20;;
48951;SDS011;34758;42.148;24.744;2024-03-29T11:13:15;1.92;;;0.30;;
48951;SDS011;34758;42.148;24.744;2024-03-29T11:15:46;2.10;;;0.52;;
48951;SDS011;34758;42.148;24.744;2024-03-29T11:18:17;1.90;;;0.20;;
48951;SDS011;34758;42.148;24.744;2024-03-29T11:20:45;2.80;;;0.40;;
48951;SDS011;34758;42.148;24.744;2024-03-29T11:23:18;6.15;;;0.40;;
48951;SDS011;34758;42.148;24.744;2024-03-29T11:25:48;2.00;;;0.20;;
48951;SDS011;34758;42.148;24.744;2024-03-29T11:28:22;3.97;;;0.80;;
48951;SDS011;34758;42.148;24.744;2024-03-29T11:30:51;4.88;;;0.50;;
48951;SDS011;34758;42.148;24.744;2024-03-29T11:33:27;1.38;;;0.60;;
48951;SDS011;34758;42.148;24.744;2024-03-29T11:35:55;3.50;;;0.75;;
48951;SDS011;34758;42.148;24.744;2024-03-29T11:38:23;1.65;;;0.30;;
48951;SDS011;34758;42.148;24.744;2024-03-29T11:41:04;2.35;;;0.40;;
48951;SDS011;34758;42.148;24.744;2024-03-29T11:43:34;1.83;;;0.38;;
48951;SDS011;34758;42.148;24.744;2024-03-29T11:46:02;1.15;;;0.20;;
48951;SDS011;34758;42.148;24.744;2024-03-29T11:48:31;2.15;;;0.32;;
48951;SDS011;34758;42.148;24.744;2024-03-29T11:50:59;4.28;;;0.20;;
48951;SDS011;34758;42.148;24.744;2024-03-29T11:53:30;3.30;;;0.60;;
48951;SDS011;34758;42.148;24.744;2024-03-29T11:56:02;2.30;;;0.45;;
48951;SDS011;34758;42.148;24.744;2024-03-29T11:58:30;1.38;;;0.30;;
48951;SDS011;34758;42.148;24.744;2024-03-29T12:00:58;1.63;;;0.22;;
48951;SDS011;34758;42.148;24.744;2024-03-29T12:03:26;3.60;;;0.50;;
48951;SDS011;34758;42.148;24.744;2024-03-29T12:05:53;1.60;;;0.20;;
48951;SDS011;34758;42.148;24.744;2024-03-29T12:08:23;3.15;;;0.40;;
48951;SDS011;34758;42.148;24.744;2024-03-29T12:10:53;3.20;;;0.50;;
48951;SDS011;34758;42.148;24.744;2024-03-29T12:13:21;2.15;;;0.20;;
48951;SDS011;34758;42.148;24.744;2024-03-29T12:15:49;4.22;;;0.90;;
48951;SDS011;34758;42.148;24.744;2024-03-29T12:18:16;2.30;;;0.50;;
48951;SDS011;34758;42.148;24.744;2024-03-29T12:20:43;2.55;;;0.55;;
48951;SDS011;34758;42.148;24.744;2024-03-29T12:23:15;2.28;;;0.47;;
48951;SDS011;34758;42.148;24.744;2024-03-29T12:25:44;2.30;;;0.63;;
48951;SDS011;34758;42.148;24.744;2024-03-29T12:28:13;4.78;;;2.30;;
48951;SDS011;34758;42.148;24.744;2024-03-29T12:30:41;2.40;;;0.60;;
48951;SDS011;34758;42.148;24.744;2024-03-29T12:33:12;4.07;;;0.80;;
48951;SDS011;34758;42.148;24.744;2024-03-29T12:35:41;2.78;;;0.60;;
48951;SDS011;34758;42.148;24.744;2024-03-29T12:38:10;4.82;;;0.65;;
48951;SDS011;34758;42.148;24.744;2024-03-29T12:40:40;2.72;;;1.25;;
48951;SDS011;34758;42.148;24.744;2024-03-29T12:43:09;2.05;;;0.50;;
48951;SDS011;34758;42.148;24.744;2024-03-29T12:45:39;3.17;;;0.60;;
48951;SDS011;34758;42.148;24.744;2024-03-29T12:48:10;1.33;;;0.30;;
48951;SDS011;34758;42.148;24.744;2024-03-29T12:50:39;2.40;;;0.30;;
48951;SDS011;34758;42.148;24.744;2024-03-29T12:53:07;2.20;;;0.47;;
48951;SDS011;34758;42.148;24.744;2024-03-29T12:55:35;1.95;;;0.75;;
48951;SDS011;34758;42.148;24.744;2024-03-29T12:58:05;3.13;;;0.40;;
48951;SDS011;34758;42.148;24.744;2024-03-29T13:00:34;9.40;;;2.85;;
48951;SDS011;34758;42.148;24.744;2024-03-29T13:03:03;5.00;;;1.15;;
48951;SDS011;34758;42.148;24.744;2024-03-29T13:05:30;3.38;;;0.57;;
48951;SDS011;34758;42.148;24.744;2024-03-29T13:08:00;3.97;;;0.68;;
48951;SDS011;34758;42.148;24.744;2024-03-29T13:10:26;1.95;;;0.73;;
48951;SDS011;34758;42.148;24.744;2024-03-29T13:12:54;1.75;;;0.32;;
48951;SDS011;34758;42.148;24.744;2024-03-29T13:15:21;3.30;;;1.05;;
48951;SDS011;34758;42.148;24.744;2024-03-29T13:17:52;2.60;;;0.68;;
48951;SDS011;34758;42.148;24.744;2024-03-29T13:20:21;3.72;;;0.40;;
48951;SDS011;34758;42.148;24.744;2024-03-29T13:22:50;6.95;;;4.47;;
48951;SDS011;34758;42.148;24.744;2024-03-29T13:25:20;5.15;;;2.60;;
48951;SDS011;34758;42.148;24.744;2024-03-29T13:27:49;8.75;;;1.50;;
48951;SDS011;34758;42.148;24.744;2024-03-29T13:32:47;1.98;;;0.35;;
48951;SDS011;34758;42.148;24.744;2024-03-29T13:35:14;1.98;;;0.40;;
48951;SDS011;34758;42.148;24.744;2024-03-29T13:37:43;8.93;;;1.08;;
48951;SDS011;34758;42.148;24.744;2024-03-29T13:40:11;4.60;;;0.70;;
48951;SDS011;34758;42.148;24.744;2024-03-29T13:42:38;3.95;;;0.75;;
48951;SDS011;34758;42.148;24.744;2024-03-29T13:45:07;4.90;;;0.70;;
48951;SDS011;34758;42.148;24.744;2024-03-29T13:47:37;5.85;;;0.80;;
48951;SDS011;34758;42.148;24.744;2024-03-29T13:50:05;2.55;;;0.93;;
48951;SDS011;34758;42.148;24.744;2024-03-29T13:52:32;4.80;;;1.15;;
48951;SDS011;34758;42.148;24.744;2024-03-29T13:55:01;3.58;;;1.20;;
48951;SDS011;34758;42.148;24.744;2024-03-29T13:57:30;2.67;;;0.80;;
48951;SDS011;34758;42.148;24.744;2024-03-29T13:59:58;3.28;;;0.95;;
48951;SDS011;34758;42.148;24.744;2024-03-29T14:02:25;2.28;;;1.30;;
48951;SDS011;34758;42.148;24.744;2024-03-29T14:04:55;10.95;;;2.03;;
48951;SDS011;34758;42.148;24.744;2024-03-29T14:09:53;2.38;;;0.90;;
48951;SDS011;34758;42.148;24.744;2024-03-29T14:12:22;2.47;;;0.80;;
48951;SDS011;34758;42.148;24.744;2024-03-29T14:14:50;7.25;;;1.60;;
48951;SDS011;34758;42.148;24.744;2024-03-29T14:17:18;5.45;;;1.08;;
48951;SDS011;34758;42.148;24.744;2024-03-29T14:19:45;2.88;;;1.00;;
48951;SDS011;34758;42.148;24.744;2024-03-29T14:22:13;1.73;;;1.08;;
48951;SDS011;34758;42.148;24.744;2024-03-29T14:24:41;4.35;;;1.50;;
48951;SDS011;34758;42.148;24.744;2024-03-29T14:27:08;3.15;;;1.40;;
48951;SDS011;34758;42.148;24.744;2024-03-29T14:29:36;14.75;;;6.65;;
48951;SDS011;34758;42.148;24.744;2024-03-29T14:32:02;8.23;;;2.83;;
48951;SDS011;34758;42.148;24.744;2024-03-29T14:34:34;3.93;;;1.50;;
48951;SDS011;34758;42.148;24.744;2024-03-29T14:37:09;3.30;;;1.27;;
48951;SDS011;34758;42.148;24.744;2024-03-29T14:39:38;5.63;;;0.95;;
48951;SDS011;34758;42.148;24.744;2024-03-29T14:42:07;3.15;;;0.80;;
48951;SDS011;34758;42.148;24.744;2024-03-29T14:44:38;2.15;;;0.75;;